sensor_id;sensor_type;location;lat;lon;timestamp;P1;durP1;ratioP1;P2;durP2;ratioP2
62711;SDS011;48772;55.586;37.730;2023-07-31T00:00:02;19.35;;;7.38;;
62711;SDS011;48772;55.586;37.730;2023-07-31T00:02:32;18.00;;;7.45;;
62711;SDS011;48772;55.586;37.730;2023-07-31T00:04:58;18.75;;;7.18;;
62711;SDS011;48772;55.586;37.730;2023-07-31T00:07:24;15.18;;;7.15;;
62711;SDS011;48772;55.586;37.730;2023-07-31T00:09:50;17.50;;;6.45;;
62711;SDS011;48772;55.586;37.730;2023-07-31T00:12:16;14.82;;;7.25;;
62711;SDS011;48772;55.586;37.730;2023-07-31T00:14:42;15.80;;;7.05;;
62711;SDS011;48772;55.586;37.730;2023-07-31T00:17:08;14.27;;;7.22;;
62711;SDS011;48772;55.586;37.730;2023-07-31T00:19:34;13.20;;;6.78;;
62711;SDS011;48772;55.586;37.730;2023-07-31T00:22:12;13.20;;;7.25;;
62711;SDS011;48772;55.586;37.730;2023-07-31T00:24:38;11.18;;;7.20;;
62711;SDS011;48772;55.586;37.730;2023-07-31T00:27:08;12.20;;;7.70;;
62711;SDS011;48772;55.586;37.730;2023-07-31T00:29:35;15.52;;;7.80;;
62711;SDS011;48772;55.586;37.730;2023-07-31T00:32:10;16.35;;;6.90;;
62711;SDS011;48772;55.586;37.730;2023-07-31T00:34:38;12.95;;;6.45;;
62711;SDS011;48772;55.586;37.730;2023-07-31T00:37:04;8.10;;;5.30;;
62711;SDS011;48772;55.586;37.730;2023-07-31T00:39:31;11.55;;;5.53;;
62711;SDS011;48772;55.586;37.730;2023-07-31T00:41:59;14.68;;;5.82;;
62711;SDS011;48772;55.586;37.730;2023-07-31T00:44:25;10.27;;;5.40;;
62711;SDS011;48772;55.586;37.730;2023-07-31T00:46:53;8.05;;;4.82;;
62711;SDS011;48772;55.586;37.730;2023-07-31T00:49:20;9.02;;;5.00;;
62711;SDS011;48772;55.586;37.730;2023-07-31T00:51:49;13.85;;;5.25;;
62711;SDS011;48772;55.586;37.730;2023-07-31T00:54:15;9.80;;;5.28;;
62711;SDS011;48772;55.586;37.730;2023-07-31T00:56:41;8.20;;;4.97;;
62711;SDS011;48772;55.586;37.730;2023-07-31T00:59:11;15.55;;;5.20;;
62711;SDS011;48772;55.586;37.730;2023-07-31T01:01:37;10.93;;;5.38;;
62711;SDS011;48772;55.586;37.730;2023-07-31T01:04:03;15.65;;;5.72;;
62711;SDS011;48772;55.586;37.730;2023-07-31T01:06:36;9.70;;;5.35;;
62711;SDS011;48772;55.586;37.730;2023-07-31T01:12:02;10.15;;;5.10;;
62711;SDS011;48772;55.586;37.730;2023-07-31T01:14:30;10.50;;;5.80;;
62711;SDS011;48772;55.586;37.730;2023-07-31T01:16:56;16.45;;;5.53;;
62711;SDS011;48772;55.586;37.730;2023-07-31T01:19:23;24.48;;;5.82;;
62711;SDS011;48772;55.586;37.730;2023-07-31T01:24:43;16.25;;;5.57;;
62711;SDS011;48772;55.586;37.730;2023-07-31T01:27:17;13.45;;;5.50;;
62711;SDS011;48772;55.586;37.730;2023-07-31T01:32:50;13.00;;;5.50;;
62711;SDS011;48772;55.586;37.730;2023-07-31T01:35:19;10.75;;;5.50;;
62711;SDS011;48772;55.586;37.730;2023-07-31T01:37:45;11.20;;;5.40;;
62711;SDS011;48772;55.586;37.730;2023-07-31T01:40:11;15.18;;;5.38;;
62711;SDS011;48772;55.586;37.730;2023-07-31T01:42:37;16.52;;;5.53;;
62711;SDS011;48772;55.586;37.730;2023-07-31T01:45:04;16.52;;;4.80;;
62711;SDS011;48772;55.586;37.730;2023-07-31T01:47:30;18.90;;;4.95;;
62711;SDS011;48772;55.586;37.730;2023-07-31T01:49:57;8.68;;;5.95;;
62711;SDS011;48772;55.586;37.730;2023-07-31T01:52:23;9.18;;;4.80;;
62711;SDS011;48772;55.586;37.730;2023-07-31T01:54:49;10.80;;;4.78;;
62711;SDS011;48772;55.586;37.730;2023-07-31T01:57:15;12.00;;;5.00;;
62711;SDS011;48772;55.586;37.730;2023-07-31T01:59:42;12.35;;;5.07;;
62711;SDS011;48772;55.586;37.730;2023-07-31T02:02:38;7.70;;;5.10;;
62711;SDS011;48772;55.586;37.730;2023-07-31T02:05:08;9.57;;;4.70;;
62711;SDS011;48772;55.586;37.730;2023-07-31T02:07:37;16.65;;;4.80;;
62711;SDS011;48772;55.586;37.730;2023-07-31T02:10:05;10.73;;;4.75;;
62711;SDS011;48772;55.586;37.730;2023-07-31T02:12:57;10.32;;;5.13;;
62711;SDS011;48772;55.586;37.730;2023-07-31T02:15:34;8.75;;;5.03;;
62711;SDS011;48772;55.586;37.730;2023-07-31T02:18:04;12.68;;;4.95;;
62711;SDS011;48772;55.586;37.730;2023-07-31T02:23:39;8.70;;;4.65;;
62711;SDS011;48772;55.586;37.730;2023-07-31T02:29:16;7.80;;;4.20;;
62711;SDS011;48772;55.586;37.730;2023-07-31T02:31:47;17.48;;;5.20;;
62711;SDS011;48772;55.586;37.730;2023-07-31T02:34:22;8.80;;;4.80;;
62711;SDS011;48772;55.586;37.730;2023-07-31T02:37:06;11.30;;;4.97;;
62711;SDS011;48772;55.586;37.730;2023-07-31T02:49:08;7.95;;;4.40;;
62711;SDS011;48772;55.586;37.730;2023-07-31T02:51:55;7.40;;;4.45;;
62711;SDS011;48772;55.586;37.730;2023-07-31T02:54:51;8.90;;;4.80;;
62711;SDS011;48772;55.586;37.730;2023-07-31T02:57:35;7.88;;;4.75;;
62711;SDS011;48772;55.586;37.730;2023-07-31T03:00:01;8.85;;;5.00;;
62711;SDS011;48772;55.586;37.730;2023-07-31T03:02:33;8.70;;;4.90;;
62711;SDS011;48772;55.586;37.730;2023-07-31T03:05:08;10.60;;;4.70;;
62711;SDS011;48772;55.586;37.730;2023-07-31T03:07:35;10.35;;;4.90;;
62711;SDS011;48772;55.586;37.730;2023-07-31T03:10:02;12.90;;;5.38;;
62711;SDS011;48772;55.586;37.730;2023-07-31T03:12:29;13.23;;;5.60;;
62711;SDS011;48772;55.586;37.730;2023-07-31T03:14:55;10.98;;;5.13;;
62711;SDS011;48772;55.586;37.730;2023-07-31T03:17:21;10.68;;;5.47;;
62711;SDS011;48772;55.586;37.730;2023-07-31T03:19:52;10.15;;;4.80;;
62711;SDS011;48772;55.586;37.730;2023-07-31T03:22:19;7.47;;;4.72;;
62711;SDS011;48772;55.586;37.730;2023-07-31T03:27:42;14.88;;;5.38;;
62711;SDS011;48772;55.586;37.730;2023-07-31T03:30:08;12.88;;;5.40;;
62711;SDS011;48772;55.586;37.730;2023-07-31T03:32:34;10.35;;;5.40;;
62711;SDS011;48772;55.586;37.730;2023-07-31T03:35:01;17.60;;;5.28;;
62711;SDS011;48772;55.586;37.730;2023-07-31T03:37:30;9.80;;;5.72;;
62711;SDS011;48772;55.586;37.730;2023-07-31T03:39:56;14.52;;;5.93;;
62711;SDS011;48772;55.586;37.730;2023-07-31T03:45:15;12.57;;;5.38;;
62711;SDS011;48772;55.586;37.730;2023-07-31T03:47:41;10.80;;;5.07;;
62711;SDS011;48772;55.586;37.730;2023-07-31T03:50:08;10.65;;;5.32;;
62711;SDS011;48772;55.586;37.730;2023-07-31T03:59:14;12.98;;;5.28;;
62711;SDS011;48772;55.586;37.730;2023-07-31T04:05:25;11.10;;;5.30;;
62711;SDS011;48772;55.586;37.730;2023-07-31T04:08:12;10.70;;;5.20;;
62711;SDS011;48772;55.586;37.730;2023-07-31T04:10:38;16.20;;;5.22;;
62711;SDS011;48772;55.586;37.730;2023-07-31T04:13:07;15.88;;;5.65;;
62711;SDS011;48772;55.586;37.730;2023-07-31T04:15:33;10.57;;;5.05;;
62711;SDS011;48772;55.586;37.730;2023-07-31T04:17:59;8.75;;;4.57;;
62711;SDS011;48772;55.586;37.730;2023-07-31T04:20:25;11.27;;;5.28;;
62711;SDS011;48772;55.586;37.730;2023-07-31T04:22:51;12.15;;;5.28;;
62711;SDS011;48772;55.586;37.730;2023-07-31T04:25:24;16.30;;;5.68;;
62711;SDS011;48772;55.586;37.730;2023-07-31T04:27:50;7.95;;;4.53;;
62711;SDS011;48772;55.586;37.730;2023-07-31T04:30:16;10.20;;;4.90;;
62711;SDS011;48772;55.586;37.730;2023-07-31T04:32:42;14.10;;;4.63;;
62711;SDS011;48772;55.586;37.730;2023-07-31T04:35:08;10.30;;;4.78;;
62711;SDS011;48772;55.586;37.730;2023-07-31T04:37:34;9.43;;;4.05;;
62711;SDS011;48772;55.586;37.730;2023-07-31T04:40:00;15.63;;;4.05;;
62711;SDS011;48772;55.586;37.730;2023-07-31T04:42:29;8.35;;;4.28;;
62711;SDS011;48772;55.586;37.730;2023-07-31T04:44:55;10.30;;;4.35;;
62711;SDS011;48772;55.586;37.730;2023-07-31T04:47:21;9.40;;;4.65;;
62711;SDS011;48772;55.586;37.730;2023-07-31T04:49:47;7.45;;;3.38;;
62711;SDS011;48772;55.586;37.730;2023-07-31T04:52:13;6.72;;;3.55;;
62711;SDS011;48772;55.586;37.730;2023-07-31T04:54:40;6.85;;;3.50;;
62711;SDS011;48772;55.586;37.730;2023-07-31T04:57:06;11.75;;;4.68;;
62711;SDS011;48772;55.586;37.730;2023-07-31T04:59:32;11.48;;;3.75;;
62711;SDS011;48772;55.586;37.730;2023-07-31T05:01:58;5.90;;;2.47;;
62711;SDS011;48772;55.586;37.730;2023-07-31T05:04:25;2.58;;;2.30;;
62711;SDS011;48772;55.586;37.730;2023-07-31T05:06:50;4.82;;;2.38;;
62711;SDS011;48772;55.586;37.730;2023-07-31T05:09:16;4.82;;;2.30;;
62711;SDS011;48772;55.586;37.730;2023-07-31T05:11:43;3.58;;;2.20;;
62711;SDS011;48772;55.586;37.730;2023-07-31T05:14:09;2.17;;;1.98;;
62711;SDS011;48772;55.586;37.730;2023-07-31T05:16:35;6.30;;;2.03;;
62711;SDS011;48772;55.586;37.730;2023-07-31T05:19:01;4.78;;;1.90;;
62711;SDS011;48772;55.586;37.730;2023-07-31T05:21:28;6.43;;;2.10;;
62711;SDS011;48772;55.586;37.730;2023-07-31T05:23:54;5.07;;;2.10;;
62711;SDS011;48772;55.586;37.730;2023-07-31T05:26:20;5.25;;;2.20;;
62711;SDS011;48772;55.586;37.730;2023-07-31T05:28:46;3.03;;;1.90;;
62711;SDS011;48772;55.586;37.730;2023-07-31T05:31:12;3.67;;;2.00;;
62711;SDS011;48772;55.586;37.730;2023-07-31T05:33:38;4.13;;;1.85;;
62711;SDS011;48772;55.586;37.730;2023-07-31T05:36:04;2.97;;;2.20;;
62711;SDS011;48772;55.586;37.730;2023-07-31T05:38:30;3.78;;;2.13;;
62711;SDS011;48772;55.586;37.730;2023-07-31T05:40:57;5.10;;;1.90;;
62711;SDS011;48772;55.586;37.730;2023-07-31T05:43:24;3.53;;;1.90;;
62711;SDS011;48772;55.586;37.730;2023-07-31T05:45:50;3.85;;;1.90;;
62711;SDS011;48772;55.586;37.730;2023-07-31T05:48:16;6.22;;;2.13;;
62711;SDS011;48772;55.586;37.730;2023-07-31T05:50:43;4.70;;;1.88;;
62711;SDS011;48772;55.586;37.730;2023-07-31T05:53:10;5.70;;;2.30;;
62711;SDS011;48772;55.586;37.730;2023-07-31T05:55:36;5.68;;;1.98;;
62711;SDS011;48772;55.586;37.730;2023-07-31T05:58:02;7.18;;;1.95;;
62711;SDS011;48772;55.586;37.730;2023-07-31T06:00:28;5.72;;;2.38;;
62711;SDS011;48772;55.586;37.730;2023-07-31T06:02:54;5.35;;;2.30;;
62711;SDS011;48772;55.586;37.730;2023-07-31T06:05:20;6.45;;;2.05;;
62711;SDS011;48772;55.586;37.730;2023-07-31T06:07:46;2.20;;;1.77;;
62711;SDS011;48772;55.586;37.730;2023-07-31T06:10:12;2.70;;;1.90;;
62711;SDS011;48772;55.586;37.730;2023-07-31T06:12:38;3.05;;;1.85;;
62711;SDS011;48772;55.586;37.730;2023-07-31T06:15:05;6.25;;;2.03;;
62711;SDS011;48772;55.586;37.730;2023-07-31T06:17:32;2.67;;;1.70;;
62711;SDS011;48772;55.586;37.730;2023-07-31T06:19:58;3.08;;;1.90;;
62711;SDS011;48772;55.586;37.730;2023-07-31T06:22:24;4.50;;;1.88;;
62711;SDS011;48772;55.586;37.730;2023-07-31T06:24:50;6.30;;;1.80;;
62711;SDS011;48772;55.586;37.730;2023-07-31T06:27:16;1.85;;;1.67;;
62711;SDS011;48772;55.586;37.730;2023-07-31T06:29:42;4.18;;;1.50;;
62711;SDS011;48772;55.586;37.730;2023-07-31T06:32:08;2.88;;;1.75;;
62711;SDS011;48772;55.586;37.730;2023-07-31T06:34:34;5.82;;;1.80;;
62711;SDS011;48772;55.586;37.730;2023-07-31T06:37:00;2.75;;;1.65;;
62711;SDS011;48772;55.586;37.730;2023-07-31T06:39:26;2.55;;;1.70;;
62711;SDS011;48772;55.586;37.730;2023-07-31T06:41:53;6.40;;;1.70;;
62711;SDS011;48772;55.586;37.730;2023-07-31T06:44:19;3.20;;;1.65;;
62711;SDS011;48772;55.586;37.730;2023-07-31T06:46:53;3.40;;;1.45;;
62711;SDS011;48772;55.586;37.730;2023-07-31T06:49:20;4.75;;;1.60;;
62711;SDS011;48772;55.586;37.730;2023-07-31T06:51:46;7.63;;;1.65;;
62711;SDS011;48772;55.586;37.730;2023-07-31T06:54:12;4.90;;;1.60;;
62711;SDS011;48772;55.586;37.730;2023-07-31T06:56:38;4.68;;;1.52;;
62711;SDS011;48772;55.586;37.730;2023-07-31T06:59:04;5.80;;;1.50;;
62711;SDS011;48772;55.586;37.730;2023-07-31T07:01:30;4.47;;;1.40;;
62711;SDS011;48772;55.586;37.730;2023-07-31T07:03:56;1.60;;;1.50;;
62711;SDS011;48772;55.586;37.730;2023-07-31T07:06:22;3.90;;;1.20;;
62711;SDS011;48772;55.586;37.730;2023-07-31T07:08:48;1.63;;;1.40;;
62711;SDS011;48772;55.586;37.730;2023-07-31T07:11:14;1.52;;;1.30;;
62711;SDS011;48772;55.586;37.730;2023-07-31T07:13:40;2.72;;;1.25;;
62711;SDS011;48772;55.586;37.730;2023-07-31T07:16:07;4.88;;;1.38;;
62711;SDS011;48772;55.586;37.730;2023-07-31T07:18:36;4.22;;;1.20;;
62711;SDS011;48772;55.586;37.730;2023-07-31T07:21:03;2.20;;;1.30;;
62711;SDS011;48772;55.586;37.730;2023-07-31T07:23:32;4.32;;;1.70;;
62711;SDS011;48772;55.586;37.730;2023-07-31T07:29:34;1.50;;;1.40;;
62711;SDS011;48772;55.586;37.730;2023-07-31T07:32:07;2.28;;;1.42;;
62711;SDS011;48772;55.586;37.730;2023-07-31T07:34:44;6.60;;;1.70;;
62711;SDS011;48772;55.586;37.730;2023-07-31T07:37:13;2.05;;;1.50;;
62711;SDS011;48772;55.586;37.730;2023-07-31T07:39:40;2.45;;;1.33;;
62711;SDS011;48772;55.586;37.730;2023-07-31T07:42:10;2.28;;;1.67;;
62711;SDS011;48772;55.586;37.730;2023-07-31T07:44:37;3.22;;;1.40;;
62711;SDS011;48772;55.586;37.730;2023-07-31T07:47:04;4.75;;;1.40;;
62711;SDS011;48772;55.586;37.730;2023-07-31T07:49:33;4.57;;;1.70;;
62711;SDS011;48772;55.586;37.730;2023-07-31T07:52:11;1.88;;;1.30;;
62711;SDS011;48772;55.586;37.730;2023-07-31T07:54:41;5.03;;;1.30;;
62711;SDS011;48772;55.586;37.730;2023-07-31T07:57:07;4.40;;;1.63;;
62711;SDS011;48772;55.586;37.730;2023-07-31T07:59:43;2.50;;;1.42;;
62711;SDS011;48772;55.586;37.730;2023-07-31T08:02:36;2.83;;;1.42;;
62711;SDS011;48772;55.586;37.730;2023-07-31T08:05:16;2.75;;;1.35;;
62711;SDS011;48772;55.586;37.730;2023-07-31T08:07:43;3.20;;;1.58;;
62711;SDS011;48772;55.586;37.730;2023-07-31T08:10:16;4.28;;;1.58;;
62711;SDS011;48772;55.586;37.730;2023-07-31T08:12:42;3.47;;;1.30;;
62711;SDS011;48772;55.586;37.730;2023-07-31T08:15:08;2.10;;;1.40;;
62711;SDS011;48772;55.586;37.730;2023-07-31T08:17:34;4.40;;;1.95;;
62711;SDS011;48772;55.586;37.730;2023-07-31T08:20:00;3.97;;;1.50;;
62711;SDS011;48772;55.586;37.730;2023-07-31T08:22:26;1.70;;;1.60;;
62711;SDS011;48772;55.586;37.730;2023-07-31T08:24:52;5.57;;;1.70;;
62711;SDS011;48772;55.586;37.730;2023-07-31T08:27:18;4.03;;;1.55;;
62711;SDS011;48772;55.586;37.730;2023-07-31T08:29:44;6.88;;;1.85;;
62711;SDS011;48772;55.586;37.730;2023-07-31T08:32:09;2.42;;;1.70;;
62711;SDS011;48772;55.586;37.730;2023-07-31T08:34:35;2.80;;;1.50;;
62711;SDS011;48772;55.586;37.730;2023-07-31T08:37:01;2.90;;;1.60;;
62711;SDS011;48772;55.586;37.730;2023-07-31T08:39:27;2.03;;;1.75;;
62711;SDS011;48772;55.586;37.730;2023-07-31T08:41:57;1.52;;;1.40;;
62711;SDS011;48772;55.586;37.730;2023-07-31T08:44:25;2.88;;;1.40;;
62711;SDS011;48772;55.586;37.730;2023-07-31T08:46:51;2.38;;;1.63;;
62711;SDS011;48772;55.586;37.730;2023-07-31T08:49:20;2.80;;;1.65;;
62711;SDS011;48772;55.586;37.730;2023-07-31T08:51:49;4.03;;;1.90;;
62711;SDS011;48772;55.586;37.730;2023-07-31T08:54:16;3.85;;;1.70;;
62711;SDS011;48772;55.586;37.730;2023-07-31T08:56:42;3.08;;;1.35;;
62711;SDS011;48772;55.586;37.730;2023-07-31T08:59:09;1.60;;;1.48;;
62711;SDS011;48772;55.586;37.730;2023-07-31T09:01:37;2.15;;;1.42;;
62711;SDS011;48772;55.586;37.730;2023-07-31T09:04:10;4.87;;;1.50;;
62711;SDS011;48772;55.586;37.730;2023-07-31T09:06:38;1.42;;;1.33;;
62711;SDS011;48772;55.586;37.730;2023-07-31T09:09:12;2.05;;;1.85;;
62711;SDS011;48772;55.586;37.730;2023-07-31T09:11:38;4.82;;;1.73;;
62711;SDS011;48772;55.586;37.730;2023-07-31T09:14:05;2.97;;;1.77;;
62711;SDS011;48772;55.586;37.730;2023-07-31T09:16:34;2.00;;;1.58;;
62711;SDS011;48772;55.586;37.730;2023-07-31T09:19:01;4.50;;;1.48;;
62711;SDS011;48772;55.586;37.730;2023-07-31T09:21:30;1.80;;;1.33;;
62711;SDS011;48772;55.586;37.730;2023-07-31T09:24:25;4.72;;;1.50;;
62711;SDS011;48772;55.586;37.730;2023-07-31T09:26:53;5.28;;;1.60;;
62711;SDS011;48772;55.586;37.730;2023-07-31T09:29:31;1.90;;;1.65;;
62711;SDS011;48772;55.586;37.730;2023-07-31T09:32:00;2.70;;;1.83;;
62711;SDS011;48772;55.586;37.730;2023-07-31T09:34:36;2.55;;;1.60;;
62711;SDS011;48772;55.586;37.730;2023-07-31T09:37:05;2.70;;;1.52;;
62711;SDS011;48772;55.586;37.730;2023-07-31T09:39:32;1.73;;;1.63;;
62711;SDS011;48772;55.586;37.730;2023-07-31T09:41:59;4.75;;;1.70;;
62711;SDS011;48772;55.586;37.730;2023-07-31T09:44:43;6.13;;;2.88;;
62711;SDS011;48772;55.586;37.730;2023-07-31T09:47:22;7.53;;;1.90;;
62711;SDS011;48772;55.586;37.730;2023-07-31T09:49:52;6.03;;;1.63;;
62711;SDS011;48772;55.586;37.730;2023-07-31T09:52:18;2.63;;;1.90;;
62711;SDS011;48772;55.586;37.730;2023-07-31T09:54:45;4.00;;;1.85;;
62711;SDS011;48772;55.586;37.730;2023-07-31T09:57:11;2.90;;;1.80;;
62711;SDS011;48772;55.586;37.730;2023-07-31T09:59:40;5.93;;;1.73;;
62711;SDS011;48772;55.586;37.730;2023-07-31T10:02:06;4.53;;;2.00;;
62711;SDS011;48772;55.586;37.730;2023-07-31T10:04:40;1.88;;;1.73;;
62711;SDS011;48772;55.586;37.730;2023-07-31T10:07:08;4.50;;;2.00;;
62711;SDS011;48772;55.586;37.730;2023-07-31T10:09:34;3.35;;;1.70;;
62711;SDS011;48772;55.586;37.730;2023-07-31T10:12:01;3.50;;;1.98;;
62711;SDS011;48772;55.586;37.730;2023-07-31T10:14:31;4.72;;;1.90;;
62711;SDS011;48772;55.586;37.730;2023-07-31T10:16:57;5.85;;;2.00;;
62711;SDS011;48772;55.586;37.730;2023-07-31T10:19:24;3.45;;;2.00;;
62711;SDS011;48772;55.586;37.730;2023-07-31T10:21:52;3.35;;;1.90;;
62711;SDS011;48772;55.586;37.730;2023-07-31T10:24:19;6.10;;;2.20;;
62711;SDS011;48772;55.586;37.730;2023-07-31T10:26:45;2.17;;;1.65;;
62711;SDS011;48772;55.586;37.730;2023-07-31T10:29:14;2.85;;;1.90;;
62711;SDS011;48772;55.586;37.730;2023-07-31T10:31:43;3.10;;;2.05;;
62711;SDS011;48772;55.586;37.730;2023-07-31T10:34:09;3.35;;;1.80;;
62711;SDS011;48772;55.586;37.730;2023-07-31T10:36:35;3.60;;;1.83;;
62711;SDS011;48772;55.586;37.730;2023-07-31T10:39:03;3.65;;;2.00;;
62711;SDS011;48772;55.586;37.730;2023-07-31T10:41:30;4.28;;;2.15;;
62711;SDS011;48772;55.586;37.730;2023-07-31T10:44:02;2.92;;;2.10;;
62711;SDS011;48772;55.586;37.730;2023-07-31T10:46:28;4.13;;;2.03;;
62711;SDS011;48772;55.586;37.730;2023-07-31T10:48:58;4.40;;;2.00;;
62711;SDS011;48772;55.586;37.730;2023-07-31T10:51:32;4.93;;;2.20;;
62711;SDS011;48772;55.586;37.730;2023-07-31T10:54:14;3.03;;;1.70;;
62711;SDS011;48772;55.586;37.730;2023-07-31T10:56:46;3.63;;;1.90;;
62711;SDS011;48772;55.586;37.730;2023-07-31T10:59:16;1.95;;;1.60;;
62711;SDS011;48772;55.586;37.730;2023-07-31T11:01:49;2.33;;;1.90;;
62711;SDS011;48772;55.586;37.730;2023-07-31T11:06:55;2.88;;;1.90;;
62711;SDS011;48772;55.586;37.730;2023-07-31T11:09:27;3.47;;;1.77;;
62711;SDS011;48772;55.586;37.730;2023-07-31T11:11:55;3.70;;;1.80;;
62711;SDS011;48772;55.586;37.730;2023-07-31T11:14:22;7.35;;;2.25;;
62711;SDS011;48772;55.586;37.730;2023-07-31T11:16:51;2.70;;;2.20;;
62711;SDS011;48772;55.586;37.730;2023-07-31T11:19:24;3.25;;;2.10;;
62711;SDS011;48772;55.586;37.730;2023-07-31T11:21:51;3.05;;;2.00;;
62711;SDS011;48772;55.586;37.730;2023-07-31T11:24:21;2.45;;;2.20;;
62711;SDS011;48772;55.586;37.730;2023-07-31T11:26:51;3.03;;;1.73;;
62711;SDS011;48772;55.586;37.730;2023-07-31T11:29:19;2.47;;;1.90;;
62711;SDS011;48772;55.586;37.730;2023-07-31T11:31:46;2.13;;;1.83;;
62711;SDS011;48772;55.586;37.730;2023-07-31T11:34:14;2.10;;;1.90;;
62711;SDS011;48772;55.586;37.730;2023-07-31T11:36:40;5.30;;;1.95;;
62711;SDS011;48772;55.586;37.730;2023-07-31T11:39:09;6.43;;;2.40;;
62711;SDS011;48772;55.586;37.730;2023-07-31T11:41:40;3.70;;;2.50;;
62711;SDS011;48772;55.586;37.730;2023-07-31T11:44:06;2.72;;;2.17;;
62711;SDS011;48772;55.586;37.730;2023-07-31T11:46:32;8.63;;;2.20;;
62711;SDS011;48772;55.586;37.730;2023-07-31T11:48:59;7.18;;;1.90;;
62711;SDS011;48772;55.586;37.730;2023-07-31T11:51:25;4.57;;;2.25;;
62711;SDS011;48772;55.586;37.730;2023-07-31T11:53:55;4.10;;;2.30;;
62711;SDS011;48772;55.586;37.730;2023-07-31T11:56:24;5.32;;;2.38;;
62711;SDS011;48772;55.586;37.730;2023-07-31T11:58:58;2.65;;;2.25;;
62711;SDS011;48772;55.586;37.730;2023-07-31T12:01:25;6.07;;;2.45;;
62711;SDS011;48772;55.586;37.730;2023-07-31T12:03:53;6.85;;;2.28;;
62711;SDS011;48772;55.586;37.730;2023-07-31T12:06:20;5.10;;;2.17;;
62711;SDS011;48772;55.586;37.730;2023-07-31T12:08:46;5.32;;;1.98;;
62711;SDS011;48772;55.586;37.730;2023-07-31T12:11:13;4.90;;;1.90;;
62711;SDS011;48772;55.586;37.730;2023-07-31T12:13:40;8.02;;;2.10;;
62711;SDS011;48772;55.586;37.730;2023-07-31T12:16:07;4.25;;;1.90;;
62711;SDS011;48772;55.586;37.730;2023-07-31T12:18:34;4.25;;;2.38;;
62711;SDS011;48772;55.586;37.730;2023-07-31T12:21:02;3.00;;;2.70;;
62711;SDS011;48772;55.586;37.730;2023-07-31T12:23:30;2.58;;;2.38;;
62711;SDS011;48772;55.586;37.730;2023-07-31T12:26:08;6.43;;;2.30;;
62711;SDS011;48772;55.586;37.730;2023-07-31T12:28:36;2.85;;;2.03;;
62711;SDS011;48772;55.586;37.730;2023-07-31T12:31:04;3.03;;;2.13;;
62711;SDS011;48772;55.586;37.730;2023-07-31T12:33:31;1.67;;;1.58;;
62711;SDS011;48772;55.586;37.730;2023-07-31T12:36:00;2.08;;;1.90;;
62711;SDS011;48772;55.586;37.730;2023-07-31T12:38:27;3.15;;;1.90;;
62711;SDS011;48772;55.586;37.730;2023-07-31T12:40:53;4.00;;;2.00;;
62711;SDS011;48772;55.586;37.730;2023-07-31T12:43:19;3.35;;;2.00;;
62711;SDS011;48772;55.586;37.730;2023-07-31T12:45:45;4.18;;;2.40;;
62711;SDS011;48772;55.586;37.730;2023-07-31T12:48:12;3.97;;;2.10;;
62711;SDS011;48772;55.586;37.730;2023-07-31T12:50:39;1.92;;;1.73;;
62711;SDS011;48772;55.586;37.730;2023-07-31T12:53:05;5.72;;;2.00;;
62711;SDS011;48772;55.586;37.730;2023-07-31T12:55:32;6.63;;;2.20;;
62711;SDS011;48772;55.586;37.730;2023-07-31T12:58:03;4.25;;;2.10;;
62711;SDS011;48772;55.586;37.730;2023-07-31T13:00:29;8.68;;;2.13;;
62711;SDS011;48772;55.586;37.730;2023-07-31T13:02:55;9.60;;;2.50;;
62711;SDS011;48772;55.586;37.730;2023-07-31T13:05:21;3.08;;;1.90;;
62711;SDS011;48772;55.586;37.730;2023-07-31T13:07:47;6.15;;;2.17;;
62711;SDS011;48772;55.586;37.730;2023-07-31T13:10:13;2.13;;;1.70;;
62711;SDS011;48772;55.586;37.730;2023-07-31T13:12:39;4.32;;;1.90;;
62711;SDS011;48772;55.586;37.730;2023-07-31T13:15:06;5.80;;;2.15;;
62711;SDS011;48772;55.586;37.730;2023-07-31T13:17:33;5.10;;;2.00;;
62711;SDS011;48772;55.586;37.730;2023-07-31T13:19:59;2.88;;;1.80;;
62711;SDS011;48772;55.586;37.730;2023-07-31T13:22:25;2.38;;;1.80;;
62711;SDS011;48772;55.586;37.730;2023-07-31T13:24:51;2.42;;;1.83;;
62711;SDS011;48772;55.586;37.730;2023-07-31T13:27:17;2.60;;;2.05;;
62711;SDS011;48772;55.586;37.730;2023-07-31T13:29:45;2.85;;;2.03;;
62711;SDS011;48772;55.586;37.730;2023-07-31T13:32:11;4.15;;;2.20;;
62711;SDS011;48772;55.586;37.730;2023-07-31T13:34:37;9.27;;;2.45;;
62711;SDS011;48772;55.586;37.730;2023-07-31T13:37:03;4.07;;;2.33;;
62711;SDS011;48772;55.586;37.730;2023-07-31T13:39:31;2.97;;;2.13;;
62711;SDS011;48772;55.586;37.730;2023-07-31T13:41:59;7.60;;;2.35;;
62711;SDS011;48772;55.586;37.730;2023-07-31T13:44:25;2.20;;;1.70;;
62711;SDS011;48772;55.586;37.730;2023-07-31T13:46:51;3.53;;;2.35;;
62711;SDS011;48772;55.586;37.730;2023-07-31T13:49:17;5.95;;;2.60;;
62711;SDS011;48772;55.586;37.730;2023-07-31T13:51:43;7.90;;;2.20;;
62711;SDS011;48772;55.586;37.730;2023-07-31T13:54:08;3.50;;;2.10;;
62711;SDS011;48772;55.586;37.730;2023-07-31T13:56:36;4.32;;;2.05;;
62711;SDS011;48772;55.586;37.730;2023-07-31T13:59:03;4.47;;;2.25;;
62711;SDS011;48772;55.586;37.730;2023-07-31T14:01:30;3.75;;;2.20;;
62711;SDS011;48772;55.586;37.730;2023-07-31T14:03:56;4.88;;;2.33;;
62711;SDS011;48772;55.586;37.730;2023-07-31T14:06:22;3.78;;;2.20;;
62711;SDS011;48772;55.586;37.730;2023-07-31T14:08:48;8.43;;;2.78;;
62711;SDS011;48772;55.586;37.730;2023-07-31T14:11:14;6.75;;;2.42;;
62711;SDS011;48772;55.586;37.730;2023-07-31T14:13:40;6.60;;;3.00;;
62711;SDS011;48772;55.586;37.730;2023-07-31T14:16:06;5.38;;;2.63;;
62711;SDS011;48772;55.586;37.730;2023-07-31T14:18:31;7.35;;;2.40;;
62711;SDS011;48772;55.586;37.730;2023-07-31T14:20:57;5.05;;;2.70;;
62711;SDS011;48772;55.586;37.730;2023-07-31T14:23:23;8.45;;;3.10;;
62711;SDS011;48772;55.586;37.730;2023-07-31T14:25:49;3.63;;;2.28;;
62711;SDS011;48772;55.586;37.730;2023-07-31T14:28:16;9.80;;;2.50;;
62711;SDS011;48772;55.586;37.730;2023-07-31T14:30:42;12.93;;;2.97;;
62711;SDS011;48772;55.586;37.730;2023-07-31T14:33:08;5.45;;;2.20;;
62711;SDS011;48772;55.586;37.730;2023-07-31T14:35:34;3.40;;;1.90;;
62711;SDS011;48772;55.586;37.730;2023-07-31T14:38:01;6.22;;;1.92;;
62711;SDS011;48772;55.586;37.730;2023-07-31T14:40:27;3.17;;;2.33;;
62711;SDS011;48772;55.586;37.730;2023-07-31T14:42:53;3.85;;;2.28;;
62711;SDS011;48772;55.586;37.730;2023-07-31T14:45:19;7.43;;;2.17;;
62711;SDS011;48772;55.586;37.730;2023-07-31T14:47:44;4.47;;;2.08;;
62711;SDS011;48772;55.586;37.730;2023-07-31T14:50:10;6.10;;;2.60;;
62711;SDS011;48772;55.586;37.730;2023-07-31T14:52:36;3.40;;;2.33;;
62711;SDS011;48772;55.586;37.730;2023-07-31T14:55:02;4.03;;;2.40;;
62711;SDS011;48772;55.586;37.730;2023-07-31T14:57:29;4.72;;;2.15;;
62711;SDS011;48772;55.586;37.730;2023-07-31T14:59:55;5.13;;;2.00;;
62711;SDS011;48772;55.586;37.730;2023-07-31T15:02:21;4.15;;;2.38;;
62711;SDS011;48772;55.586;37.730;2023-07-31T15:04:47;5.15;;;2.35;;
62711;SDS011;48772;55.586;37.730;2023-07-31T15:07:13;9.05;;;2.40;;
62711;SDS011;48772;55.586;37.730;2023-07-31T15:09:39;7.57;;;2.42;;
62711;SDS011;48772;55.586;37.730;2023-07-31T15:12:05;5.15;;;2.60;;
62711;SDS011;48772;55.586;37.730;2023-07-31T15:14:32;2.92;;;2.13;;
62711;SDS011;48772;55.586;37.730;2023-07-31T15:17:00;4.10;;;2.30;;
62711;SDS011;48772;55.586;37.730;2023-07-31T15:19:25;4.88;;;2.60;;
62711;SDS011;48772;55.586;37.730;2023-07-31T15:21:51;4.65;;;2.13;;